sensor_id;sensor_type;location;lat;lon;timestamp;P1;durP1;ratioP1;P2;durP2;ratioP2
26965;SDS011;14522;52.068;4.414;2023-02-12T00:00:18;14.38;;;6.32;;
26965;SDS011;14522;52.068;4.414;2023-02-12T00:02:45;13.55;;;7.88;;
26965;SDS011;14522;52.068;4.414;2023-02-12T00:05:11;13.82;;;6.82;;
26965;SDS011;14522;52.068;4.414;2023-02-12T00:07:38;11.65;;;7.47;;
26965;SDS011;14522;52.068;4.414;2023-02-12T00:10:04;13.82;;;7.20;;
26965;SDS011;14522;52.068;4.414;2023-02-12T00:12:31;13.38;;;6.90;;
26965;SDS011;14522;52.068;4.414;2023-02-12T00:14:57;11.32;;;6.55;;
26965;SDS011;14522;52.068;4.414;2023-02-12T00:17:24;11.80;;;6.95;;
26965;SDS011;14522;52.068;4.414;2023-02-12T00:19:50;11.85;;;7.22;;
26965;SDS011;14522;52.068;4.414;2023-02-12T00:22:16;13.05;;;6.80;;
26965;SDS011;14522;52.068;4.414;2023-02-12T00:24:43;14.50;;;7.70;;
26965;SDS011;14522;52.068;4.414;2023-02-12T00:27:09;15.73;;;7.35;;
26965;SDS011;14522;52.068;4.414;2023-02-12T00:29:36;11.23;;;6.80;;
26965;SDS011;14522;52.068;4.414;2023-02-12T00:32:02;9.63;;;6.70;;
26965;SDS011;14522;52.068;4.414;2023-02-12T00:34:29;13.10;;;6.80;;
26965;SDS011;14522;52.068;4.414;2023-02-12T00:36:55;11.20;;;6.50;;
26965;SDS011;14522;52.068;4.414;2023-02-12T00:39:21;11.13;;;6.35;;
26965;SDS011;14522;52.068;4.414;2023-02-12T00:41:48;11.15;;;5.20;;
26965;SDS011;14522;52.068;4.414;2023-02-12T00:44:14;9.30;;;6.05;;
26965;SDS011;14522;52.068;4.414;2023-02-12T00:46:41;11.02;;;5.72;;
26965;SDS011;14522;52.068;4.414;2023-02-12T00:49:07;9.23;;;5.32;;
26965;SDS011;14522;52.068;4.414;2023-02-12T00:51:34;11.15;;;5.50;;
26965;SDS011;14522;52.068;4.414;2023-02-12T00:54:00;8.90;;;5.50;;
26965;SDS011;14522;52.068;4.414;2023-02-12T00:56:26;10.65;;;5.45;;
26965;SDS011;14522;52.068;4.414;2023-02-12T00:58:53;9.82;;;4.93;;
26965;SDS011;14522;52.068;4.414;2023-02-12T01:01:19;8.07;;;5.75;;
26965;SDS011;14522;52.068;4.414;2023-02-12T01:03:45;11.88;;;5.35;;
26965;SDS011;14522;52.068;4.414;2023-02-12T01:06:12;10.95;;;5.45;;
26965;SDS011;14522;52.068;4.414;2023-02-12T01:08:38;10.13;;;5.97;;
26965;SDS011;14522;52.068;4.414;2023-02-12T01:11:05;10.00;;;5.65;;
26965;SDS011;14522;52.068;4.414;2023-02-12T01:13:32;9.68;;;5.35;;
26965;SDS011;14522;52.068;4.414;2023-02-12T01:16:02;11.73;;;6.22;;
26965;SDS011;14522;52.068;4.414;2023-02-12T01:18:29;8.63;;;5.53;;
26965;SDS011;14522;52.068;4.414;2023-02-12T01:20:55;8.98;;;5.05;;
26965;SDS011;14522;52.068;4.414;2023-02-12T01:23:24;9.57;;;4.68;;
26965;SDS011;14522;52.068;4.414;2023-02-12T01:25:50;9.45;;;5.97;;
26965;SDS011;14522;52.068;4.414;2023-02-12T01:28:16;10.80;;;6.63;;
26965;SDS011;14522;52.068;4.414;2023-02-12T01:30:43;9.73;;;6.30;;
26965;SDS011;14522;52.068;4.414;2023-02-12T01:33:09;10.93;;;6.95;;
26965;SDS011;14522;52.068;4.414;2023-02-12T01:35:36;11.25;;;6.22;;
26965;SDS011;14522;52.068;4.414;2023-02-12T01:38:02;11.38;;;6.72;;
26965;SDS011;14522;52.068;4.414;2023-02-12T01:40:29;10.43;;;7.07;;
26965;SDS011;14522;52.068;4.414;2023-02-12T01:42:58;13.30;;;7.65;;
26965;SDS011;14522;52.068;4.414;2023-02-12T01:45:36;10.32;;;7.07;;
26965;SDS011;14522;52.068;4.414;2023-02-12T01:48:06;12.25;;;7.00;;
26965;SDS011;14522;52.068;4.414;2023-02-12T01:50:32;9.70;;;6.43;;
26965;SDS011;14522;52.068;4.414;2023-02-12T01:52:59;11.10;;;6.65;;
26965;SDS011;14522;52.068;4.414;2023-02-12T01:55:26;11.38;;;7.00;;
26965;SDS011;14522;52.068;4.414;2023-02-12T01:57:52;9.88;;;5.95;;
26965;SDS011;14522;52.068;4.414;2023-02-12T02:00:20;11.70;;;7.20;;
26965;SDS011;14522;52.068;4.414;2023-02-12T02:02:48;10.55;;;6.93;;
26965;SDS011;14522;52.068;4.414;2023-02-12T02:05:17;10.38;;;6.05;;
26965;SDS011;14522;52.068;4.414;2023-02-12T02:07:46;12.85;;;6.50;;
26965;SDS011;14522;52.068;4.414;2023-02-12T02:10:12;8.38;;;5.85;;
26965;SDS011;14522;52.068;4.414;2023-02-12T02:12:39;10.43;;;4.88;;
26965;SDS011;14522;52.068;4.414;2023-02-12T02:15:24;7.85;;;5.00;;
26965;SDS011;14522;52.068;4.414;2023-02-12T02:17:58;8.48;;;3.75;;
26965;SDS011;14522;52.068;4.414;2023-02-12T02:20:29;12.85;;;4.50;;
26965;SDS011;14522;52.068;4.414;2023-02-12T02:28:51;6.15;;;3.00;;
26965;SDS011;14522;52.068;4.414;2023-02-12T02:30:58;6.15;;;3.00;;
26965;SDS011;14522;52.068;4.414;2023-02-12T02:35:54;4.90;;;2.00;;
26965;SDS011;14522;52.068;4.414;2023-02-12T02:38:28;5.13;;;2.53;;
26965;SDS011;14522;52.068;4.414;2023-02-12T02:41:06;5.00;;;2.53;;
26965;SDS011;14522;52.068;4.414;2023-02-12T02:43:41;5.18;;;2.58;;
26965;SDS011;14522;52.068;4.414;2023-02-12T02:46:13;3.83;;;2.20;;
26965;SDS011;14522;52.068;4.414;2023-02-12T02:48:43;4.18;;;1.52;;
26965;SDS011;14522;52.068;4.414;2023-02-12T02:51:14;3.95;;;1.40;;
26965;SDS011;14522;52.068;4.414;2023-02-12T02:53:53;2.78;;;1.20;;
26965;SDS011;14522;52.068;4.414;2023-02-12T02:56:21;2.30;;;0.93;;
26965;SDS011;14522;52.068;4.414;2023-02-12T02:58:55;3.58;;;1.00;;
26965;SDS011;14522;52.068;4.414;2023-02-12T03:01:24;3.47;;;0.93;;
26965;SDS011;14522;52.068;4.414;2023-02-12T03:07:23;4.18;;;1.42;;
26965;SDS011;14522;52.068;4.414;2023-02-12T03:09:19;2.47;;;0.80;;
26965;SDS011;14522;52.068;4.414;2023-02-12T03:11:46;3.97;;;0.70;;
26965;SDS011;14522;52.068;4.414;2023-02-12T03:14:24;2.45;;;0.70;;
26965;SDS011;14522;52.068;4.414;2023-02-12T03:19:25;3.90;;;0.80;;
26965;SDS011;14522;52.068;4.414;2023-02-12T03:22:01;3.30;;;0.90;;
26965;SDS011;14522;52.068;4.414;2023-02-12T03:25:32;2.10;;;0.70;;
26965;SDS011;14522;52.068;4.414;2023-02-12T03:29:54;2.88;;;0.80;;
26965;SDS011;14522;52.068;4.414;2023-02-12T03:34:54;1.45;;;0.80;;
26965;SDS011;14522;52.068;4.414;2023-02-12T03:37:32;2.60;;;0.80;;
26965;SDS011;14522;52.068;4.414;2023-02-12T03:40:33;2.03;;;0.82;;
26965;SDS011;14522;52.068;4.414;2023-02-12T03:43:16;1.90;;;0.85;;
26965;SDS011;14522;52.068;4.414;2023-02-12T03:46:21;4.20;;;0.85;;
26965;SDS011;14522;52.068;4.414;2023-02-12T03:48:29;2.63;;;0.68;;
26965;SDS011;14522;52.068;4.414;2023-02-12T03:53:25;2.92;;;0.80;;
26965;SDS011;14522;52.068;4.414;2023-02-12T03:55:53;2.42;;;0.55;;
26965;SDS011;14522;52.068;4.414;2023-02-12T03:58:23;1.58;;;0.73;;
26965;SDS011;14522;52.068;4.414;2023-02-12T04:00:51;3.10;;;0.68;;
26965;SDS011;14522;52.068;4.414;2023-02-12T04:03:18;4.55;;;0.63;;
26965;SDS011;14522;52.068;4.414;2023-02-12T04:05:44;1.58;;;0.52;;
26965;SDS011;14522;52.068;4.414;2023-02-12T04:08:11;2.28;;;0.50;;
26965;SDS011;14522;52.068;4.414;2023-02-12T04:13:08;1.60;;;0.60;;
26965;SDS011;14522;52.068;4.414;2023-02-12T04:15:41;2.33;;;0.60;;
26965;SDS011;14522;52.068;4.414;2023-02-12T04:23:47;2.10;;;0.73;;
26965;SDS011;14522;52.068;4.414;2023-02-12T04:26:22;1.45;;;0.60;;
26965;SDS011;14522;52.068;4.414;2023-02-12T04:36:58;3.53;;;0.60;;
26965;SDS011;14522;52.068;4.414;2023-02-12T04:39:26;5.97;;;0.80;;
26965;SDS011;14522;52.068;4.414;2023-02-12T04:41:56;3.65;;;0.98;;
26965;SDS011;14522;52.068;4.414;2023-02-12T04:44:25;2.17;;;0.85;;
26965;SDS011;14522;52.068;4.414;2023-02-12T04:46:52;2.85;;;0.77;;
26965;SDS011;14522;52.068;4.414;2023-02-12T04:49:19;4.57;;;0.80;;
26965;SDS011;14522;52.068;4.414;2023-02-12T04:51:47;2.90;;;0.60;;
26965;SDS011;14522;52.068;4.414;2023-02-12T04:54:14;2.17;;;0.82;;
26965;SDS011;14522;52.068;4.414;2023-02-12T04:56:41;1.45;;;0.88;;
26965;SDS011;14522;52.068;4.414;2023-02-12T04:59:08;1.73;;;0.80;;
26965;SDS011;14522;52.068;4.414;2023-02-12T05:01:35;1.90;;;0.50;;
26965;SDS011;14522;52.068;4.414;2023-02-12T05:04:02;2.70;;;0.77;;
26965;SDS011;14522;52.068;4.414;2023-02-12T05:06:29;2.10;;;0.75;;
26965;SDS011;14522;52.068;4.414;2023-02-12T05:08:55;2.72;;;0.80;;
26965;SDS011;14522;52.068;4.414;2023-02-12T05:11:22;1.33;;;0.65;;
26965;SDS011;14522;52.068;4.414;2023-02-12T05:13:49;2.17;;;0.82;;
26965;SDS011;14522;52.068;4.414;2023-02-12T05:16:15;4.03;;;0.70;;
26965;SDS011;14522;52.068;4.414;2023-02-12T05:18:42;3.15;;;1.00;;
26965;SDS011;14522;52.068;4.414;2023-02-12T05:21:08;2.78;;;0.80;;
26965;SDS011;14522;52.068;4.414;2023-02-12T05:23:35;6.80;;;0.70;;
26965;SDS011;14522;52.068;4.414;2023-02-12T05:26:03;1.90;;;0.77;;
26965;SDS011;14522;52.068;4.414;2023-02-12T05:28:30;2.35;;;0.88;;
26965;SDS011;14522;52.068;4.414;2023-02-12T05:31:00;2.42;;;0.95;;
26965;SDS011;14522;52.068;4.414;2023-02-12T05:33:27;3.50;;;1.08;;
26965;SDS011;14522;52.068;4.414;2023-02-12T05:35:54;2.80;;;0.95;;
26965;SDS011;14522;52.068;4.414;2023-02-12T05:38:21;2.22;;;0.70;;
26965;SDS011;14522;52.068;4.414;2023-02-12T05:40:47;1.88;;;0.80;;
26965;SDS011;14522;52.068;4.414;2023-02-12T05:43:14;1.48;;;0.77;;
26965;SDS011;14522;52.068;4.414;2023-02-12T05:45:40;1.73;;;0.88;;
26965;SDS011;14522;52.068;4.414;2023-02-12T05:48:10;2.13;;;0.75;;
26965;SDS011;14522;52.068;4.414;2023-02-12T05:50:36;2.42;;;0.88;;
26965;SDS011;14522;52.068;4.414;2023-02-12T05:53:02;1.85;;;0.82;;
26965;SDS011;14522;52.068;4.414;2023-02-12T05:55:29;1.35;;;0.80;;
26965;SDS011;14522;52.068;4.414;2023-02-12T05:57:55;1.60;;;0.80;;
26965;SDS011;14522;52.068;4.414;2023-02-12T06:00:21;2.97;;;0.88;;
26965;SDS011;14522;52.068;4.414;2023-02-12T06:02:48;4.22;;;0.77;;
26965;SDS011;14522;52.068;4.414;2023-02-12T06:05:14;2.55;;;0.68;;
26965;SDS011;14522;52.068;4.414;2023-02-12T06:07:41;3.30;;;1.00;;
26965;SDS011;14522;52.068;4.414;2023-02-12T06:10:07;3.78;;;1.00;;
26965;SDS011;14522;52.068;4.414;2023-02-12T06:12:34;3.28;;;1.15;;
26965;SDS011;14522;52.068;4.414;2023-02-12T06:15:00;5.05;;;1.20;;
26965;SDS011;14522;52.068;4.414;2023-02-12T06:17:26;4.07;;;1.00;;
26965;SDS011;14522;52.068;4.414;2023-02-12T06:19:53;5.45;;;1.40;;
26965;SDS011;14522;52.068;4.414;2023-02-12T06:22:19;2.30;;;1.13;;
26965;SDS011;14522;52.068;4.414;2023-02-12T06:24:45;3.47;;;1.30;;
26965;SDS011;14522;52.068;4.414;2023-02-12T06:27:12;3.50;;;1.42;;
26965;SDS011;14522;52.068;4.414;2023-02-12T06:29:38;3.03;;;1.63;;
26965;SDS011;14522;52.068;4.414;2023-02-12T06:32:05;2.40;;;1.00;;
26965;SDS011;14522;52.068;4.414;2023-02-12T06:34:33;2.17;;;1.30;;
26965;SDS011;14522;52.068;4.414;2023-02-12T06:37:00;5.10;;;1.67;;
26965;SDS011;14522;52.068;4.414;2023-02-12T06:39:26;3.42;;;1.10;;
26965;SDS011;14522;52.068;4.414;2023-02-12T06:41:52;2.60;;;1.27;;
26965;SDS011;14522;52.068;4.414;2023-02-12T06:44:19;1.92;;;0.77;;
26965;SDS011;14522;52.068;4.414;2023-02-12T06:46:46;2.13;;;0.88;;
26965;SDS011;14522;52.068;4.414;2023-02-12T06:49:12;1.58;;;0.77;;
26965;SDS011;14522;52.068;4.414;2023-02-12T06:51:39;4.30;;;1.10;;
26965;SDS011;14522;52.068;4.414;2023-02-12T06:54:11;2.92;;;1.40;;
26965;SDS011;14522;52.068;4.414;2023-02-12T06:56:37;1.95;;;1.00;;
26965;SDS011;14522;52.068;4.414;2023-02-12T06:59:03;1.92;;;0.93;;
26965;SDS011;14522;52.068;4.414;2023-02-12T07:01:30;3.55;;;1.95;;
26965;SDS011;14522;52.068;4.414;2023-02-12T07:03:58;2.20;;;0.93;;
26965;SDS011;14522;52.068;4.414;2023-02-12T07:06:25;4.20;;;1.40;;
26965;SDS011;14522;52.068;4.414;2023-02-12T07:08:52;2.78;;;1.20;;
26965;SDS011;14522;52.068;4.414;2023-02-12T07:11:22;6.72;;;1.60;;
26965;SDS011;14522;52.068;4.414;2023-02-12T07:13:48;4.35;;;1.38;;
26965;SDS011;14522;52.068;4.414;2023-02-12T07:16:15;3.42;;;1.27;;
26965;SDS011;14522;52.068;4.414;2023-02-12T07:18:42;3.05;;;1.20;;
26965;SDS011;14522;52.068;4.414;2023-02-12T07:21:10;4.60;;;1.42;;
26965;SDS011;14522;52.068;4.414;2023-02-12T07:23:37;2.20;;;1.20;;
26965;SDS011;14522;52.068;4.414;2023-02-12T07:26:04;3.63;;;1.42;;
26965;SDS011;14522;52.068;4.414;2023-02-12T07:28:31;2.03;;;1.27;;
26965;SDS011;14522;52.068;4.414;2023-02-12T07:31:08;2.58;;;1.20;;
26965;SDS011;14522;52.068;4.414;2023-02-12T07:33:35;4.60;;;1.58;;
26965;SDS011;14522;52.068;4.414;2023-02-12T07:36:02;5.63;;;1.77;;
26965;SDS011;14522;52.068;4.414;2023-02-12T07:38:29;5.30;;;2.17;;
26965;SDS011;14522;52.068;4.414;2023-02-12T07:41:04;3.25;;;1.70;;
26965;SDS011;14522;52.068;4.414;2023-02-12T07:43:34;2.92;;;1.45;;
26965;SDS011;14522;52.068;4.414;2023-02-12T07:46:07;5.70;;;1.60;;
26965;SDS011;14522;52.068;4.414;2023-02-12T07:48:34;6.05;;;1.75;;
26965;SDS011;14522;52.068;4.414;2023-02-12T07:51:04;3.13;;;1.80;;
26965;SDS011;14522;52.068;4.414;2023-02-12T07:53:31;4.85;;;1.83;;
26965;SDS011;14522;52.068;4.414;2023-02-12T07:56:17;4.32;;;1.65;;
26965;SDS011;14522;52.068;4.414;2023-02-12T08:03:36;7.07;;;2.53;;
26965;SDS011;14522;52.068;4.414;2023-02-12T08:08:42;5.28;;;2.50;;
26965;SDS011;14522;52.068;4.414;2023-02-12T08:11:08;3.75;;;2.30;;
26965;SDS011;14522;52.068;4.414;2023-02-12T08:13:35;5.22;;;2.53;;
26965;SDS011;14522;52.068;4.414;2023-02-12T08:16:03;4.05;;;2.33;;
26965;SDS011;14522;52.068;4.414;2023-02-12T08:18:30;5.05;;;2.38;;
26965;SDS011;14522;52.068;4.414;2023-02-12T08:21:00;4.38;;;2.80;;
26965;SDS011;14522;52.068;4.414;2023-02-12T08:23:27;5.55;;;3.35;;
26965;SDS011;14522;52.068;4.414;2023-02-12T08:25:53;5.88;;;3.58;;
26965;SDS011;14522;52.068;4.414;2023-02-12T08:28:20;7.18;;;3.60;;
26965;SDS011;14522;52.068;4.414;2023-02-12T08:30:48;7.75;;;4.43;;
26965;SDS011;14522;52.068;4.414;2023-02-12T08:33:14;8.20;;;4.63;;
26965;SDS011;14522;52.068;4.414;2023-02-12T08:35:41;9.40;;;4.80;;
26965;SDS011;14522;52.068;4.414;2023-02-12T08:38:07;11.52;;;5.10;;
26965;SDS011;14522;52.068;4.414;2023-02-12T08:40:34;9.25;;;4.95;;
26965;SDS011;14522;52.068;4.414;2023-02-12T08:43:00;6.95;;;4.78;;
26965;SDS011;14522;52.068;4.414;2023-02-12T08:45:26;8.60;;;4.72;;
26965;SDS011;14522;52.068;4.414;2023-02-12T08:47:53;8.27;;;5.32;;
26965;SDS011;14522;52.068;4.414;2023-02-12T08:50:20;10.48;;;5.57;;
26965;SDS011;14522;52.068;4.414;2023-02-12T08:52:46;10.98;;;5.88;;
26965;SDS011;14522;52.068;4.414;2023-02-12T08:55:13;9.70;;;6.00;;
26965;SDS011;14522;52.068;4.414;2023-02-12T08:57:40;10.38;;;5.93;;
26965;SDS011;14522;52.068;4.414;2023-02-12T09:00:07;7.57;;;4.25;;
26965;SDS011;14522;52.068;4.414;2023-02-12T09:02:33;9.13;;;6.35;;
26965;SDS011;14522;52.068;4.414;2023-02-12T09:05:00;11.85;;;5.85;;
26965;SDS011;14522;52.068;4.414;2023-02-12T09:07:26;8.82;;;5.68;;
26965;SDS011;14522;52.068;4.414;2023-02-12T09:09:53;9.93;;;6.28;;
26965;SDS011;14522;52.068;4.414;2023-02-12T09:12:19;9.52;;;5.88;;
26965;SDS011;14522;52.068;4.414;2023-02-12T09:14:47;10.93;;;6.55;;
26965;SDS011;14522;52.068;4.414;2023-02-12T09:17:13;13.38;;;6.00;;
26965;SDS011;14522;52.068;4.414;2023-02-12T09:19:40;5.65;;;3.60;;
26965;SDS011;14522;52.068;4.414;2023-02-12T09:22:06;4.97;;;2.95;;
26965;SDS011;14522;52.068;4.414;2023-02-12T09:24:33;8.23;;;4.53;;
26965;SDS011;14522;52.068;4.414;2023-02-12T09:26:59;5.43;;;3.95;;
26965;SDS011;14522;52.068;4.414;2023-02-12T09:29:25;7.80;;;4.35;;
26965;SDS011;14522;52.068;4.414;2023-02-12T09:31:52;7.55;;;5.07;;
26965;SDS011;14522;52.068;4.414;2023-02-12T09:34:19;10.77;;;6.13;;
26965;SDS011;14522;52.068;4.414;2023-02-12T09:36:46;8.68;;;6.15;;
26965;SDS011;14522;52.068;4.414;2023-02-12T09:39:12;12.55;;;6.70;;
26965;SDS011;14522;52.068;4.414;2023-02-12T09:41:43;11.45;;;6.32;;
26965;SDS011;14522;52.068;4.414;2023-02-12T09:46:52;14.13;;;6.70;;
26965;SDS011;14522;52.068;4.414;2023-02-12T09:49:25;10.55;;;6.50;;
26965;SDS011;14522;52.068;4.414;2023-02-12T09:51:54;10.48;;;6.50;;
26965;SDS011;14522;52.068;4.414;2023-02-12T09:54:22;9.90;;;7.05;;
26965;SDS011;14522;52.068;4.414;2023-02-12T09:56:53;9.63;;;6.63;;
26965;SDS011;14522;52.068;4.414;2023-02-12T09:59:34;9.98;;;6.45;;
26965;SDS011;14522;52.068;4.414;2023-02-12T10:02:10;13.88;;;6.78;;
26965;SDS011;14522;52.068;4.414;2023-02-12T10:04:37;16.27;;;7.25;;
26965;SDS011;14522;52.068;4.414;2023-02-12T10:10:00;11.50;;;6.65;;
26965;SDS011;14522;52.068;4.414;2023-02-12T10:12:35;11.48;;;6.68;;
26965;SDS011;14522;52.068;4.414;2023-02-12T10:27:35;8.25;;;5.25;;
26965;SDS011;14522;52.068;4.414;2023-02-12T10:30:05;8.30;;;5.38;;
26965;SDS011;14522;52.068;4.414;2023-02-12T10:35:12;12.70;;;6.00;;
26965;SDS011;14522;52.068;4.414;2023-02-12T10:40:09;6.65;;;5.80;;
26965;SDS011;14522;52.068;4.414;2023-02-12T10:42:41;6.82;;;4.95;;
26965;SDS011;14522;52.068;4.414;2023-02-12T10:45:12;7.72;;;4.68;;
26965;SDS011;14522;52.068;4.414;2023-02-12T10:47:39;6.32;;;4.20;;
26965;SDS011;14522;52.068;4.414;2023-02-12T10:50:13;8.38;;;5.28;;
26965;SDS011;14522;52.068;4.414;2023-02-12T10:52:47;9.90;;;5.30;;
26965;SDS011;14522;52.068;4.414;2023-02-12T10:55:34;7.43;;;5.28;;
26965;SDS011;14522;52.068;4.414;2023-02-12T10:58:02;9.18;;;5.53;;
26965;SDS011;14522;52.068;4.414;2023-02-12T11:00:35;9.40;;;5.40;;
26965;SDS011;14522;52.068;4.414;2023-02-12T11:05:33;9.32;;;5.82;;
26965;SDS011;14522;52.068;4.414;2023-02-12T11:08:01;8.90;;;5.63;;
26965;SDS011;14522;52.068;4.414;2023-02-12T11:10:29;15.55;;;6.53;;
26965;SDS011;14522;52.068;4.414;2023-02-12T11:12:59;13.70;;;6.50;;
26965;SDS011;14522;52.068;4.414;2023-02-12T11:15:27;8.95;;;5.80;;
26965;SDS011;14522;52.068;4.414;2023-02-12T11:17:57;8.68;;;6.18;;
26965;SDS011;14522;52.068;4.414;2023-02-12T11:20:29;9.85;;;6.32;;
26965;SDS011;14522;52.068;4.414;2023-02-12T11:22:59;8.43;;;5.97;;
26965;SDS011;14522;52.068;4.414;2023-02-12T11:25:29;10.55;;;7.07;;
26965;SDS011;14522;52.068;4.414;2023-02-12T11:28:16;9.82;;;6.32;;
26965;SDS011;14522;52.068;4.414;2023-02-12T11:33:18;9.75;;;6.57;;
26965;SDS011;14522;52.068;4.414;2023-02-12T11:35:50;13.95;;;7.15;;
26965;SDS011;14522;52.068;4.414;2023-02-12T11:38:19;10.35;;;7.20;;
26965;SDS011;14522;52.068;4.414;2023-02-12T11:40:48;9.90;;;6.13;;
26965;SDS011;14522;52.068;4.414;2023-02-12T11:43:16;13.32;;;7.68;;
26965;SDS011;14522;52.068;4.414;2023-02-12T11:45:44;8.93;;;5.85;;
26965;SDS011;14522;52.068;4.414;2023-02-12T11:48:16;13.23;;;6.43;;
26965;SDS011;14522;52.068;4.414;2023-02-12T11:50:48;11.23;;;6.80;;
26965;SDS011;14522;52.068;4.414;2023-02-12T11:53:19;9.40;;;6.65;;
26965;SDS011;14522;52.068;4.414;2023-02-12T11:55:57;12.90;;;6.90;;
26965;SDS011;14522;52.068;4.414;2023-02-12T11:58:26;10.57;;;6.32;;
26965;SDS011;14522;52.068;4.414;2023-02-12T12:00:53;8.05;;;6.05;;
26965;SDS011;14522;52.068;4.414;2023-02-12T12:03:24;10.43;;;6.80;;
26965;SDS011;14522;52.068;4.414;2023-02-12T12:05:53;10.82;;;7.28;;
26965;SDS011;14522;52.068;4.414;2023-02-12T12:08:24;14.85;;;7.03;;
26965;SDS011;14522;52.068;4.414;2023-02-12T12:13:20;10.57;;;6.65;;
26965;SDS011;14522;52.068;4.414;2023-02-12T12:15:52;11.57;;;7.03;;
26965;SDS011;14522;52.068;4.414;2023-02-12T12:18:57;10.98;;;6.93;;
26965;SDS011;14522;52.068;4.414;2023-02-12T12:24:37;11.60;;;6.97;;
26965;SDS011;14522;52.068;4.414;2023-02-12T12:27:50;9.57;;;7.00;;
26965;SDS011;14522;52.068;4.414;2023-02-12T12:30:32;8.32;;;6.38;;
26965;SDS011;14522;52.068;4.414;2023-02-12T12:32:59;11.98;;;6.82;;
26965;SDS011;14522;52.068;4.414;2023-02-12T12:38:25;12.27;;;6.70;;
26965;SDS011;14522;52.068;4.414;2023-02-12T12:41:01;8.02;;;6.57;;
26965;SDS011;14522;52.068;4.414;2023-02-12T12:43:33;11.18;;;7.22;;
26965;SDS011;14522;52.068;4.414;2023-02-12T12:46:04;9.57;;;6.57;;
26965;SDS011;14522;52.068;4.414;2023-02-12T12:48:40;11.70;;;6.38;;
26965;SDS011;14522;52.068;4.414;2023-02-12T12:51:19;11.55;;;7.47;;
26965;SDS011;14522;52.068;4.414;2023-02-12T12:56:20;12.63;;;8.38;;
26965;SDS011;14522;52.068;4.414;2023-02-12T13:04:00;9.95;;;7.45;;
26965;SDS011;14522;52.068;4.414;2023-02-12T13:09:11;8.85;;;5.90;;
26965;SDS011;14522;52.068;4.414;2023-02-12T13:11:43;12.85;;;7.72;;
26965;SDS011;14522;52.068;4.414;2023-02-12T13:14:38;13.18;;;7.22;;
26965;SDS011;14522;52.068;4.414;2023-02-12T13:19:52;10.93;;;7.43;;
26965;SDS011;14522;52.068;4.414;2023-02-12T13:22:26;9.40;;;6.82;;
26965;SDS011;14522;52.068;4.414;2023-02-12T13:24:57;11.43;;;7.70;;
26965;SDS011;14522;52.068;4.414;2023-02-12T13:27:29;13.57;;;7.32;;
26965;SDS011;14522;52.068;4.414;2023-02-12T13:32:29;9.20;;;6.47;;
26965;SDS011;14522;52.068;4.414;2023-02-12T13:34:57;10.68;;;6.50;;
26965;SDS011;14522;52.068;4.414;2023-02-12T13:37:35;9.32;;;6.00;;
26965;SDS011;14522;52.068;4.414;2023-02-12T13:40:04;11.85;;;5.60;;
26965;SDS011;14522;52.068;4.414;2023-02-12T13:42:45;7.43;;;5.32;;
26965;SDS011;14522;52.068;4.414;2023-02-12T13:53:19;10.73;;;6.37;;
26965;SDS011;14522;52.068;4.414;2023-02-12T13:55:54;10.23;;;6.05;;
26965;SDS011;14522;52.068;4.414;2023-02-12T14:03:34;10.77;;;6.93;;
26965;SDS011;14522;52.068;4.414;2023-02-12T14:08:34;9.07;;;6.18;;
26965;SDS011;14522;52.068;4.414;2023-02-12T14:11:03;8.65;;;6.35;;
26965;SDS011;14522;52.068;4.414;2023-02-12T14:13:43;10.15;;;6.18;;
26965;SDS011;14522;52.068;4.414;2023-02-12T14:16:33;9.45;;;6.38;;
26965;SDS011;14522;52.068;4.414;2023-02-12T14:21:45;9.93;;;6.15;;
26965;SDS011;14522;52.068;4.414;2023-02-12T14:26:57;12.68;;;6.68;;
26965;SDS011;14522;52.068;4.414;2023-02-12T14:29:24;8.73;;;7.00;;
26965;SDS011;14522;52.068;4.414;2023-02-12T14:31:50;10.75;;;6.95;;
26965;SDS011;14522;52.068;4.414;2023-02-12T14:36:44;7.63;;;5.15;;
26965;SDS011;14522;52.068;4.414;2023-02-12T14:41:47;9.57;;;6.80;;
26965;SDS011;14522;52.068;4.414;2023-02-12T14:46:50;17.00;;;7.43;;
26965;SDS011;14522;52.068;4.414;2023-02-12T14:49:18;10.73;;;7.22;;
26965;SDS011;14522;52.068;4.414;2023-02-12T14:51:52;10.40;;;7.32;;
26965;SDS011;14522;52.068;4.414;2023-02-12T14:54:26;9.25;;;7.20;;
26965;SDS011;14522;52.068;4.414;2023-02-12T14:59:22;11.40;;;7.40;;
26965;SDS011;14522;52.068;4.414;2023-02-12T15:01:49;9.75;;;7.32;;
26965;SDS011;14522;52.068;4.414;2023-02-12T15:04:19;10.45;;;7.47;;
26965;SDS011;14522;52.068;4.414;2023-02-12T15:06:53;12.68;;;9.02;;
26965;SDS011;14522;52.068;4.414;2023-02-12T15:09:32;11.60;;;8.50;;
26965;SDS011;14522;52.068;4.414;2023-02-12T15:14:31;13.80;;;8.52;;
26965;SDS011;14522;52.068;4.414;2023-02-12T15:17:19;10.50;;;7.80;;
26965;SDS011;14522;52.068;4.414;2023-02-12T15:20:00;13.32;;;8.25;;
26965;SDS011;14522;52.068;4.414;2023-02-12T15:22:30;14.13;;;10.35;;
26965;SDS011;14522;52.068;4.414;2023-02-12T15:27:42;17.42;;;10.55;;
26965;SDS011;14522;52.068;4.414;2023-02-12T15:30:14;15.65;;;10.90;;
26965;SDS011;14522;52.068;4.414;2023-02-12T15:32:51;15.73;;;11.35;;
26965;SDS011;14522;52.068;4.414;2023-02-12T15:35:25;12.68;;;9.73;;
26965;SDS011;14522;52.068;4.414;2023-02-12T15:37:52;14.35;;;9.65;;
26965;SDS011;14522;52.068;4.414;2023-02-12T15:40:19;11.80;;;8.60;;
26965;SDS011;14522;52.068;4.414;2023-02-12T15:45:25;12.07;;;8.07;;
26965;SDS011;14522;52.068;4.414;2023-02-12T15:48:00;13.35;;;8.57;;
26965;SDS011;14522;52.068;4.414;2023-02-12T15:50:26;12.60;;;8.27;;
26965;SDS011;14522;52.068;4.414;2023-02-12T15:52:54;11.50;;;8.35;;
26965;SDS011;14522;52.068;4.414;2023-02-12T15:55:22;12.45;;;8.68;;
26965;SDS011;14522;52.068;4.414;2023-02-12T15:58:00;14.13;;;9.57;;
26965;SDS011;14522;52.068;4.414;2023-02-12T16:00:28;15.13;;;9.55;;
26965;SDS011;14522;52.068;4.414;2023-02-12T16:02:55;16.70;;;10.30;;
26965;SDS011;14522;52.068;4.414;2023-02-12T16:05:22;16.65;;;9.80;;
26965;SDS011;14522;52.068;4.414;2023-02-12T16:07:48;16.45;;;10.75;;
26965;SDS011;14522;52.068;4.414;2023-02-12T16:10:16;17.83;;;11.38;;
26965;SDS011;14522;52.068;4.414;2023-02-12T16:12:43;17.13;;;11.65;;
26965;SDS011;14522;52.068;4.414;2023-02-12T16:15:23;18.80;;;12.25;;
26965;SDS011;14522;52.068;4.414;2023-02-12T16:17:50;20.63;;;12.27;;
26965;SDS011;14522;52.068;4.414;2023-02-12T16:22:47;19.55;;;12.48;;
26965;SDS011;14522;52.068;4.414;2023-02-12T16:25:15;21.77;;;12.65;;
26965;SDS011;14522;52.068;4.414;2023-02-12T16:27:48;24.52;;;13.85;;
26965;SDS011;14522;52.068;4.414;2023-02-12T16:32:49;22.10;;;13.77;;
26965;SDS011;14522;52.068;4.414;2023-02-12T16:37:48;20.85;;;14.30;;
26965;SDS011;14522;52.068;4.414;2023-02-12T16:50:26;21.90;;;14.57;;
26965;SDS011;14522;52.068;4.414;2023-02-12T16:53:06;24.92;;;15.75;;
26965;SDS011;14522;52.068;4.414;2023-02-12T16:55:33;25.15;;;15.90;;
26965;SDS011;14522;52.068;4.414;2023-02-12T16:57:59;26.83;;;15.35;;
26965;SDS011;14522;52.068;4.414;2023-02-12T17:00:26;22.42;;;15.55;;
26965;SDS011;14522;52.068;4.414;2023-02-12T17:02:55;21.50;;;14.27;;
26965;SDS011;14522;52.068;4.414;2023-02-12T17:05:22;23.48;;;15.48;;
26965;SDS011;14522;52.068;4.414;2023-02-12T17:07:48;22.90;;;14.68;;
26965;SDS011;14522;52.068;4.414;2023-02-12T17:10:15;22.05;;;14.32;;
26965;SDS011;14522;52.068;4.414;2023-02-12T17:12:45;22.98;;;14.05;;
26965;SDS011;14522;52.068;4.414;2023-02-12T17:15:48;25.15;;;14.48;;
26965;SDS011;14522;52.068;4.414;2023-02-12T17:18:06;24.55;;;15.15;;
26965;SDS011;14522;52.068;4.414;2023-02-12T17:20:33;24.50;;;14.35;;
26965;SDS011;14522;52.068;4.414;2023-02-12T17:22:59;24.33;;;15.43;;
26965;SDS011;14522;52.068;4.414;2023-02-12T17:25:26;22.67;;;14.98;;
26965;SDS011;14522;52.068;4.414;2023-02-12T17:27:55;25.58;;;15.95;;